Time;durP1;ratioP1;P1;durP2;ratioP2;P2;SDS_P1;SDS_P2;PMS_P1;PMS_P2;Temp;Humidity;BMP_temperature;BMP_pressure;BME280_temperature;BME280_humidity;BME280_pressure;Samples;Min_cycle;Max_cycle;Signal;HPM_P1;HPM_P2
2023/10/27 04:06:41;;;;;;;0.30;0.30;;;10.60;99.90;;;;;;5190494;23;20696;-63
2023/10/27 04:09:07;;;;;;;0.20;0.20;;;10.60;99.90;;;;;;4992835;28;20197;-62
2023/10/27 04:11:32;;;;;;;0.30;0.20;;;10.60;99.90;;;;;;4993946;28;20442;-62
2023/10/27 04:13:58;;;;;;;0.33;0.33;;;10.60;99.90;;;;;;4993871;28;20936;-63
2023/10/27 04:16:23;;;;;;;0.30;0.30;;;10.60;99.90;;;;;;4993745;28;20523;-64
2023/10/27 04:18:49;;;;;;;0.40;0.40;;;10.60;99.90;;;;;;4976368;28;20283;-63
2023/10/27 04:21:14;;;;;;;0.30;0.20;;;10.60;99.90;;;;;;4993518;28;20204;-64
2023/10/27 04:23:40;;;;;;;0.30;0.30;;;10.60;99.90;;;;;;4993481;28;20294;-64
2023/10/27 04:26:06;;;;;;;0.30;0.20;;;10.60;99.90;;;;;;4993033;28;20251;-63
2023/10/27 04:28:32;;;;;;;0.30;0.30;;;10.60;99.90;;;;;;4993764;28;20570;-63
2023/10/27 04:30:57;;;;;;;0.30;0.30;;;10.50;99.90;;;;;;4993835;28;20168;-63
2023/10/27 04:33:24;;;;;;;0.30;0.30;;;10.50;99.90;;;;;;4993676;28;20168;-64
2023/10/27 04:35:50;;;;;;;0.30;0.30;;;10.60;99.90;;;;;;4991821;28;20196;-64
2023/10/27 04:38:16;;;;;;;0.30;0.20;;;10.60;99.90;;;;;;4993960;28;20189;-64
2023/10/27 04:40:42;;;;;;;0.30;0.20;;;10.60;99.90;;;;;;4993591;28;20168;-64
2023/10/27 04:43:07;;;;;;;0.30;0.20;;;10.60;99.90;;;;;;4993633;28;20263;-62
2023/10/27 04:45:33;;;;;;;0.30;0.20;;;10.60;99.90;;;;;;4993217;28;20189;-64
2023/10/27 04:47:58;;;;;;;0.30;0.20;;;10.50;99.90;;;;;;4995567;28;20174;-64
2023/10/27 04:50:24;;;;;;;0.30;0.30;;;10.50;99.90;;;;;;4997352;28;20215;-63
2023/10/27 04:52:50;;;;;;;0.30;0.30;;;10.50;99.90;;;;;;4997478;28;20534;-65
2023/10/27 04:55:16;;;;;;;0.30;0.20;;;10.50;99.90;;;;;;4996835;28;20440;-65
2023/10/27 04:57:41;;;;;;;0.30;0.30;;;10.50;99.90;;;;;;4996871;28;20238;-64
2023/10/27 05:00:11;;;;;;;0.30;0.30;;;10.50;99.90;;;;;;4997297;28;20766;-65
2023/10/27 05:02:37;;;;;;;0.40;0.40;;;10.50;99.90;;;;;;4996852;28;20196;-63
2023/10/27 05:05:03;;;;;;;0.30;0.30;;;10.40;99.90;;;;;;4996480;28;20262;-63
2023/10/27 05:07:28;;;;;;;0.30;0.30;;;10.50;99.90;;;;;;4996385;28;20199;-63
2023/10/27 05:09:54;;;;;;;0.40;0.40;;;10.50;99.90;;;;;;4996831;28;20410;-63
2023/10/27 05:12:20;;;;;;;0.30;0.30;;;10.50;99.90;;;;;;4996849;28;20251;-63
2023/10/27 05:14:45;;;;;;;0.30;0.20;;;10.50;99.90;;;;;;4996420;28;20519;-63
2023/10/27 05:17:11;;;;;;;0.30;0.30;;;10.50;99.90;;;;;;4996448;28;20248;-63
2023/10/27 05:19:36;;;;;;;0.30;0.27;;;10.60;99.90;;;;;;4996636;28;20642;-63
2023/10/27 05:22:05;;;;;;;0.30;0.20;;;10.50;99.90;;;;;;4996554;28;20300;-62
2023/10/27 05:24:32;;;;;;;0.30;0.30;;;10.50;99.90;;;;;;4996028;28;20204;-62
2023/10/27 05:26:57;;;;;;;0.30;0.30;;;10.50;99.90;;;;;;4996606;28;20610;-62
2023/10/27 05:29:24;;;;;;;0.30;0.30;;;10.50;99.90;;;;;;4996194;28;20180;-61
2023/10/27 05:31:50;;;;;;;0.30;0.20;;;10.50;99.90;;;;;;4996165;28;20172;-62
2023/10/27 05:34:15;;;;;;;0.30;0.30;;;10.50;99.90;;;;;;4996034;28;20183;-63
2023/10/27 05:36:41;;;;;;;0.40;0.40;;;10.50;99.90;;;;;;4996176;28;20315;-63
2023/10/27 05:39:07;;;;;;;0.30;0.30;;;10.50;99.90;;;;;;4996356;28;20209;-63
2023/10/27 05:41:32;;;;;;;0.30;0.30;;;10.50;99.90;;;;;;4996406;28;20174;-62
2023/10/27 05:43:58;;;;;;;0.30;0.20;;;10.50;99.90;;;;;;4995664;28;20269;-62
2023/10/27 05:46:23;;;;;;;0.30;0.30;;;10.50;99.90;;;;;;4995796;28;20235;-62
2023/10/27 05:48:49;;;;;;;0.30;0.30;;;10.50;99.90;;;;;;4996448;28;20205;-63
2023/10/27 05:51:15;;;;;;;0.30;0.20;;;10.50;99.90;;;;;;4996233;28;20175;-63
2023/10/27 05:53:41;;;;;;;0.28;0.20;;;10.50;99.90;;;;;;4996374;28;20180;-62
2023/10/27 05:56:07;;;;;;;0.30;0.30;;;10.50;99.90;;;;;;4995662;28;20219;-63
2023/10/27 05:58:35;;;;;;;0.30;0.30;;;10.50;99.90;;;;;;4995287;28;20177;-62
2023/10/27 06:01:01;;;;;;;0.30;0.30;;;10.50;99.90;;;;;;4996198;28;20188;-63
2023/10/27 06:03:26;;;;;;;0.30;0.30;;;10.50;99.90;;;;;;4995996;28;20246;-63
2023/10/27 06:05:52;;;;;;;0.30;0.30;;;10.40;99.90;;;;;;4995454;28;20199;-63
2023/10/27 06:08:19;;;;;;;0.27;0.20;;;10.40;99.90;;;;;;4978372;28;20185;-63
2023/10/27 06:10:44;;;;;;;0.30;0.30;;;10.40;99.90;;;;;;4995310;28;20181;-65
2023/10/27 06:13:11;;;;;;;0.30;0.30;;;10.40;99.90;;;;;;4995268;28;20189;-63
2023/10/27 06:15:37;;;;;;;0.20;0.20;;;10.40;99.90;;;;;;4995381;28;20187;-63
2023/10/27 06:18:03;;;;;;;0.38;0.38;;;10.40;99.90;;;;;;4995753;28;20172;-63
2023/10/27 06:20:29;;;;;;;0.30;0.20;;;10.30;99.90;;;;;;4995622;28;20180;-62
2023/10/27 06:22:55;;;;;;;0.30;0.30;;;10.40;99.90;;;;;;4995655;28;20513;-62
2023/10/27 06:25:25;;;;;;;0.30;0.30;;;10.40;99.90;;;;;;4994931;28;20191;-62
2023/10/27 06:27:54;;;;;;;0.30;0.30;;;10.40;99.90;;;;;;4995738;28;20231;-62
2023/10/27 06:30:21;;;;;;;0.20;0.20;;;10.40;99.90;;;;;;4995615;28;20164;-62
2023/10/27 06:32:49;;;;;;;0.30;0.20;;;10.40;99.90;;;;;;4977902;28;20270;-62
2023/10/27 06:35:15;;;;;;;0.30;0.30;;;10.40;99.90;;;;;;4994595;28;20271;-62
2023/10/27 06:37:41;;;;;;;0.30;0.30;;;10.30;99.90;;;;;;4995402;28;20635;-63
2023/10/27 06:40:07;;;;;;;0.30;0.20;;;10.30;99.90;;;;;;4995317;28;20638;-63
2023/10/27 06:42:33;;;;;;;0.30;0.30;;;10.40;99.90;;;;;;4995274;28;20192;-63
2023/10/27 06:45:00;;;;;;;0.30;0.20;;;10.40;99.90;;;;;;4994852;28;20731;-62
2023/10/27 06:47:27;;;;;;;0.30;0.20;;;10.40;99.90;;;;;;4995351;28;20482;-63
2023/10/27 06:49:52;;;;;;;0.30;0.30;;;10.50;99.90;;;;;;4994874;28;20172;-63
2023/10/27 06:52:18;;;;;;;0.30;0.30;;;10.50;99.90;;;;;;4995051;28;20258;-62
2023/10/27 06:54:44;;;;;;;0.30;0.30;;;10.60;99.90;;;;;;4977009;28;20231;-63
2023/10/27 06:57:10;;;;;;;0.30;0.30;;;10.60;99.90;;;;;;4995148;28;20177;-63
2023/10/27 06:59:36;;;;;;;0.30;0.20;;;10.60;99.90;;;;;;4994869;28;20451;-62
2023/10/27 07:02:03;;;;;;;0.30;0.30;;;10.60;99.90;;;;;;4995033;28;20192;-63
2023/10/27 07:04:28;;;;;;;0.20;0.20;;;10.70;99.90;;;;;;4976655;28;20654;-63
2023/10/27 07:06:55;;;;;;;0.30;0.30;;;10.70;99.90;;;;;;4994382;28;20524;-63
2023/10/27 07:09:21;;;;;;;0.30;0.30;;;10.80;99.90;;;;;;4976910;28;20269;-63
2023/10/27 07:11:47;;;;;;;0.30;0.30;;;10.80;99.90;;;;;;4994502;28;20169;-62
2023/10/27 07:14:14;;;;;;;0.30;0.30;;;10.80;99.90;;;;;;4994474;28;20173;-63
2023/10/27 07:16:41;;;;;;;0.30;0.30;;;10.90;99.90;;;;;;4994702;28;20194;-63
2023/10/27 07:19:06;;;;;;;0.20;0.20;;;10.90;99.90;;;;;;4994375;28;20478;-62
2023/10/27 07:21:34;;;;;;;0.30;0.30;;;11.00;99.90;;;;;;4995020;28;20177;-62
2023/10/27 07:23:59;;;;;;;0.30;0.30;;;11.00;99.90;;;;;;4994052;28;20193;-63
2023/10/27 07:26:26;;;;;;;0.30;0.30;;;11.00;99.90;;;;;;4994228;28;20255;-62
2023/10/27 07:28:52;;;;;;;0.30;0.30;;;11.10;99.90;;;;;;4994390;28;20402;-63
2023/10/27 07:31:17;;;;;;;0.30;0.20;;;11.10;99.90;;;;;;4994389;28;20428;-63
2023/10/27 07:33:43;;;;;;;0.20;0.20;;;11.20;99.90;;;;;;4994423;28;20176;-63
2023/10/27 07:36:10;;;;;;;0.30;0.30;;;11.20;99.90;;;;;;4993895;28;20197;-62
2023/10/27 07:38:36;;;;;;;0.30;0.30;;;11.20;99.90;;;;;;4994057;28;20185;-62
2023/10/27 07:41:03;;;;;;;0.30;0.30;;;11.20;99.90;;;;;;4994460;28;20916;-63
2023/10/27 07:43:29;;;;;;;0.50;0.50;;;11.20;99.90;;;;;;4994211;28;20220;-62
2023/10/27 07:45:55;;;;;;;0.30;0.20;;;11.30;99.90;;;;;;4993684;28;20435;-63
2023/10/27 07:48:21;;;;;;;0.30;0.30;;;11.30;99.90;;;;;;4994572;28;20970;-62
2023/10/27 07:50:47;;;;;;;0.30;0.20;;;11.40;99.90;;;;;;4994196;28;20181;-62
2023/10/27 07:53:13;;;;;;;0.20;0.20;;;11.40;99.90;;;;;;4993795;28;20429;-62
2023/10/27 07:55:38;;;;;;;0.30;0.20;;;11.40;99.90;;;;;;4993728;28;20405;-63
2023/10/27 07:58:04;;;;;;;0.20;0.20;;;11.40;99.90;;;;;;4994533;28;20260;-62
2023/10/27 08:00:31;;;;;;;0.30;0.30;;;11.40;99.90;;;;;;4994126;28;20169;-63
2023/10/27 08:02:57;;;;;;;0.30;0.20;;;11.40;99.90;;;;;;4993869;28;20484;-62
2023/10/27 08:05:23;;;;;;;0.23;0.23;;;11.40;99.90;;;;;;4993798;28;20444;-62
2023/10/27 08:07:48;;;;;;;0.20;0.20;;;11.40;99.90;;;;;;4976153;28;20599;-62
2023/10/27 08:10:14;;;;;;;0.20;0.20;;;11.40;99.90;;;;;;4993450;28;20184;-62
2023/10/27 08:12:40;;;;;;;0.20;0.20;;;11.50;99.90;;;;;;4994110;28;20173;-62
2023/10/27 08:15:06;;;;;;;0.30;0.30;;;11.60;99.90;;;;;;4993453;28;20205;-62
2023/10/27 08:17:33;;;;;;;0.30;0.30;;;11.60;99.90;;;;;;4993921;28;20173;-63
2023/10/27 08:19:59;;;;;;;0.30;0.30;;;11.60;99.90;;;;;;4993871;28;20432;-62
2023/10/27 08:22:24;;;;;;;0.30;0.20;;;11.60;99.90;;;;;;4978531;28;20445;-62
2023/10/27 08:24:50;;;;;;;0.30;0.30;;;11.70;99.90;;;;;;4997319;28;20246;-63
2023/10/27 08:27:15;;;;;;;0.30;0.20;;;11.80;99.90;;;;;;4997967;28;20173;-62
2023/10/27 08:29:41;;;;;;;0.23;0.20;;;11.80;99.90;;;;;;4980207;28;20264;-63
2023/10/27 08:32:07;;;;;;;0.30;0.27;;;11.90;99.90;;;;;;4997706;28;20170;-62
2023/10/27 08:34:32;;;;;;;0.30;0.30;;;11.90;99.90;;;;;;4979740;28;20178;-63
2023/10/27 08:36:58;;;;;;;0.27;0.20;;;12.00;99.90;;;;;;4997227;28;20660;-63
2023/10/27 08:39:27;;;;;;;0.30;0.20;;;12.10;99.90;;;;;;4997724;28;20584;-62
2023/10/27 08:41:53;;;;;;;0.30;0.20;;;12.20;99.90;;;;;;4997470;28;20178;-62
2023/10/27 08:44:19;;;;;;;0.30;0.30;;;12.30;99.90;;;;;;4996787;28;20458;-62
2023/10/27 08:46:46;;;;;;;0.30;0.20;;;12.40;99.90;;;;;;4997266;28;20424;-63
2023/10/27 08:49:12;;;;;;;0.30;0.30;;;12.40;99.90;;;;;;4997165;28;20409;-64
2023/10/27 08:51:39;;;;;;;0.30;0.20;;;12.40;99.90;;;;;;4997217;28;20421;-62
2023/10/27 08:54:07;;;;;;;0.30;0.20;;;12.40;99.90;;;;;;4997068;28;20478;-62
2023/10/27 08:56:33;;;;;;;0.30;0.20;;;12.40;99.90;;;;;;4997209;28;20441;-63
2023/10/27 08:59:00;;;;;;;0.30;0.20;;;12.50;99.90;;;;;;4997066;28;20832;-63
2023/10/27 09:01:26;;;;;;;0.30;0.30;;;12.50;99.90;;;;;;4997043;28;20490;-63
2023/10/27 09:04:08;;;;;;;0.30;0.30;;;12.50;99.90;;;;;;4996905;28;21007;-64
2023/10/27 09:06:38;;;;;;;0.30;0.30;;;12.40;99.90;;;;;;4996462;28;20428;-63
2023/10/27 09:09:09;;;;;;;0.30;0.20;;;12.40;99.90;;;;;;4997106;28;20397;-63
2023/10/27 09:11:43;;;;;;;0.30;0.30;;;12.40;99.90;;;;;;4996828;28;20416;-63
2023/10/27 09:14:23;;;;;;;0.30;0.20;;;12.50;99.90;;;;;;4996582;28;20423;-63
2023/10/27 09:16:50;;;;;;;0.30;0.30;;;12.50;99.90;;;;;;4996742;28;20923;-63
2023/10/27 09:19:26;;;;;;;0.30;0.20;;;12.50;99.90;;;;;;4996897;28;20398;-64
2023/10/27 09:21:54;;;;;;;0.30;0.30;;;12.50;99.90;;;;;;4996452;28;20920;-63
2023/10/27 09:24:24;;;;;;;0.30;0.30;;;12.50;99.90;;;;;;4996354;28;20527;-63
2023/10/27 09:26:50;;;;;;;0.30;0.30;;;12.60;99.90;;;;;;4996516;28;20418;-63
2023/10/27 09:29:16;;;;;;;0.30;0.30;;;12.70;99.90;;;;;;4996786;28;20402;-64
2023/10/27 09:31:43;;;;;;;0.30;0.30;;;12.80;99.90;;;;;;4996554;28;20376;-64
2023/10/27 09:34:25;;;;;;;0.30;0.30;;;12.80;99.90;;;;;;4994962;28;20171;-63
2023/10/27 09:36:53;;;;;;;0.30;0.30;;;12.90;99.90;;;;;;4976837;28;20511;-62
2023/10/27 09:39:22;;;;;;;0.30;0.30;;;13.00;99.90;;;;;;4976846;28;20517;-61
2023/10/27 09:42:02;;;;;;;0.30;0.20;;;13.10;99.90;;;;;;4976760;28;20403;-63
2023/10/27 09:44:52;;;;;;;0.30;0.30;;;13.00;99.90;;;;;;4976409;28;20866;-64
2023/10/27 09:47:33;;;;;;;0.30;0.27;;;13.00;99.90;;;;;;4977223;28;20490;-63
2023/10/27 09:50:09;;;;;;;0.30;0.30;;;13.00;99.90;;;;;;4989444;28;20389;-63
2023/10/27 09:52:34;;;;;;;0.30;0.20;;;13.00;99.90;;;;;;4996386;28;20377;-64
2023/10/27 09:55:05;;;;;;;0.30;0.20;;;13.00;99.90;;;;;;4995736;28;20400;-63
2023/10/27 09:57:32;;;;;;;0.30;0.30;;;13.00;99.90;;;;;;4996303;28;20285;-64
2023/10/27 10:00:00;;;;;;;0.30;0.27;;;13.00;99.90;;;;;;4995910;28;20442;-63
2023/10/27 10:02:29;;;;;;;0.30;0.30;;;13.00;99.90;;;;;;4996104;28;20378;-63
2023/10/27 10:05:00;;;;;;;0.30;0.20;;;13.10;99.90;;;;;;4995082;28;20446;-64
2023/10/27 10:07:32;;;;;;;0.30;0.30;;;13.20;99.90;;;;;;4995439;28;20434;-63
2023/10/27 10:10:16;;;;;;;0.30;0.30;;;13.20;99.90;;;;;;4995970;28;20405;-64
2023/10/27 10:13:00;;;;;;;0.30;0.20;;;13.20;99.90;;;;;;4996010;28;20790;-63
2023/10/27 10:15:38;;;;;;;0.30;0.20;;;13.20;99.90;;;;;;4994937;28;20765;-63
2023/10/27 10:18:06;;;;;;;0.30;0.20;;;13.20;99.90;;;;;;4995646;28;20414;-64
2023/10/27 10:20:44;;;;;;;0.30;0.30;;;13.30;99.90;;;;;;4995481;28;20407;-63
2023/10/27 10:23:11;;;;;;;0.30;0.30;;;13.40;99.90;;;;;;4995451;28;20424;-63
2023/10/27 10:25:48;;;;;;;0.30;0.20;;;13.40;99.90;;;;;;4995090;28;20438;-63
2023/10/27 10:28:14;;;;;;;0.30;0.30;;;13.40;99.90;;;;;;4995447;28;20438;-62
2023/10/27 10:30:41;;;;;;;0.30;0.30;;;13.50;99.90;;;;;;4995018;28;20386;-65
2023/10/27 10:33:28;;;;;;;0.30;0.30;;;13.60;99.90;;;;;;4995627;28;20420;-64
2023/10/27 10:36:14;;;;;;;0.30;0.20;;;13.60;99.90;;;;;;4994789;28;20573;-63
2023/10/27 10:38:44;;;;;;;0.30;0.20;;;13.60;99.90;;;;;;4995196;28;20389;-63
2023/10/27 10:41:09;;;;;;;0.30;0.30;;;13.60;99.90;;;;;;4995162;28;20438;-62
2023/10/27 10:43:40;;;;;;;0.30;0.20;;;13.70;99.90;;;;;;4995063;28;20421;-63
2023/10/27 10:46:10;;;;;;;0.30;0.20;;;13.70;99.90;;;;;;4977280;28;20943;-63
2023/10/27 10:48:46;;;;;;;0.30;0.30;;;13.80;99.90;;;;;;4994978;28;20407;-63
2023/10/27 10:51:15;;;;;;;0.30;0.30;;;14.00;99.90;;;;;;4986023;28;20415;-65
2023/10/27 10:53:42;;;;;;;0.30;0.20;;;14.30;99.90;;;;;;4980499;28;20413;-63
2023/10/27 10:56:09;;;;;;;0.30;0.30;;;14.50;99.90;;;;;;4977098;28;20845;-65
2023/10/27 10:58:36;;;;;;;0.30;0.20;;;14.70;99.90;;;;;;4994876;28;20797;-63
2023/10/27 11:01:05;;;;;;;0.30;0.20;;;14.90;99.90;;;;;;4994598;28;20428;-63
2023/10/27 11:03:33;;;;;;;0.30;0.30;;;15.00;99.90;;;;;;4994643;28;20955;-66
2023/10/27 11:06:02;;;;;;;0.30;0.20;;;15.20;99.90;;;;;;4994113;28;20430;-66
2023/10/27 11:08:37;;;;;;;0.30;0.20;;;15.40;99.90;;;;;;4994252;28;20423;-64
2023/10/27 11:11:07;;;;;;;0.40;0.40;;;15.50;99.90;;;;;;4994525;28;20920;-66
2023/10/27 11:13:39;;;;;;;0.30;0.30;;;15.50;99.90;;;;;;4994492;28;20458;-65
2023/10/27 11:16:22;;;;;;;0.30;0.30;;;15.40;99.90;;;;;;4994026;28;20397;-65
2023/10/27 11:18:57;;;;;;;0.30;0.20;;;15.30;99.90;;;;;;4994633;28;20422;-65
2023/10/27 11:21:27;;;;;;;0.30;0.30;;;15.20;99.90;;;;;;4994524;28;20773;-67
2023/10/27 11:23:54;;;;;;;0.30;0.20;;;15.30;99.90;;;;;;4993622;28;20456;-65
2023/10/27 11:26:25;;;;;;;0.30;0.20;;;15.30;99.90;;;;;;4994549;28;20429;-65
2023/10/27 11:28:54;;;;;;;0.30;0.30;;;15.40;99.90;;;;;;4994766;28;20406;-68
2023/10/27 11:31:23;;;;;;;0.30;0.20;;;15.50;99.90;;;;;;4994412;28;20476;-64
2023/10/27 11:34:05;;;;;;;0.30;0.30;;;15.60;99.90;;;;;;4994378;28;20386;-66
2023/10/27 11:36:33;;;;;;;0.30;0.20;;;15.70;99.90;;;;;;4994223;28;20436;-64
2023/10/27 11:39:18;;;;;;;0.30;0.30;;;15.80;99.90;;;;;;4994164;28;20423;-70
2023/10/27 11:41:49;;;;;;;0.30;0.20;;;15.90;99.90;;;;;;4994152;28;20400;-64
2023/10/27 11:44:15;;;;;;;0.30;0.27;;;16.10;99.90;;;;;;4993766;28;20428;-66
2023/10/27 11:46:49;;;;;;;0.30;0.20;;;16.20;99.90;;;;;;4993966;28;20404;-63
2023/10/27 11:49:15;;;;;;;0.30;0.20;;;16.40;99.90;;;;;;4993998;28;20427;-67
2023/10/27 11:51:45;;;;;;;0.30;0.27;;;16.50;99.90;;;;;;4993524;28;20450;-65
2023/10/27 11:54:11;;;;;;;0.30;0.20;;;16.70;99.90;;;;;;4993415;28;20401;-65
2023/10/27 11:56:40;;;;;;;0.30;0.30;;;16.70;99.90;;;;;;4993287;28;20435;-64
2023/10/27 11:59:05;;;;;;;0.30;0.27;;;16.80;99.90;;;;;;4993566;28;20473;-64
2023/10/27 12:01:31;;;;;;;0.30;0.20;;;16.80;99.90;;;;;;4992459;28;20450;-61
2023/10/27 12:03:57;;;;;;;0.30;0.30;;;16.70;99.90;;;;;;4993339;28;20199;-62
2023/10/27 12:06:22;;;;;;;0.30;0.27;;;16.70;99.90;;;;;;4993317;28;20266;-66
2023/10/27 12:08:49;;;;;;;0.30;0.20;;;16.80;99.90;;;;;;4993800;28;20179;-62
2023/10/27 12:11:17;;;;;;;0.30;0.30;;;16.70;99.90;;;;;;4993707;28;20278;-63
2023/10/27 12:13:46;;;;;;;1.60;1.50;;;16.60;99.90;;;;;;4993884;28;20401;-65
2023/10/27 12:16:13;;;;;;;0.30;0.20;;;16.50;99.90;;;;;;4990960;28;20538;-68
2023/10/27 12:18:38;;;;;;;0.30;0.30;;;16.40;99.90;;;;;;4992087;28;20969;-65
2023/10/27 12:21:04;;;;;;;0.30;0.20;;;16.50;99.90;;;;;;4991792;28;20493;-63
2023/10/27 12:23:30;;;;;;;0.30;0.20;;;16.60;99.90;;;;;;4991676;28;20198;-66
2023/10/27 12:25:59;;;;;;;0.30;0.30;;;16.60;99.90;;;;;;4991211;28;20196;-63
2023/10/27 12:28:27;;;;;;;0.30;0.20;;;16.60;99.90;;;;;;4991391;28;20921;-62
2023/10/27 12:30:56;;;;;;;0.30;0.20;;;16.50;99.90;;;;;;4991720;28;20382;-63
2023/10/27 12:33:22;;;;;;;0.30;0.20;;;16.30;99.90;;;;;;4992295;28;20414;-65
2023/10/27 12:35:51;;;;;;;0.30;0.20;;;16.20;99.90;;;;;;4993136;28;20414;-63
2023/10/27 12:38:20;;;;;;;0.30;0.20;;;16.10;99.90;;;;;;4993457;28;20977;-65
2023/10/27 12:40:47;;;;;;;0.30;0.30;;;15.90;99.90;;;;;;4993790;28;20404;-65
2023/10/27 12:43:14;;;;;;;0.30;0.30;;;15.70;99.90;;;;;;4993213;28;20456;-64
2023/10/27 12:45:41;;;;;;;0.40;0.40;;;15.60;99.90;;;;;;4992992;28;20510;-67
2023/10/27 12:48:08;;;;;;;0.30;0.20;;;15.50;99.90;;;;;;4993618;28;20458;-64
2023/10/27 12:50:35;;;;;;;0.30;0.20;;;15.50;99.90;;;;;;4993436;28;20431;-66
2023/10/27 12:53:01;;;;;;;0.30;0.20;;;15.50;99.90;;;;;;4976263;28;20455;-67
2023/10/27 12:55:27;;;;;;;0.30;0.30;;;15.60;99.90;;;;;;4992650;28;20443;-63
2023/10/27 12:57:57;;;;;;;0.30;0.30;;;15.60;99.90;;;;;;4993478;28;20499;-66
2023/10/27 13:00:30;;;;;;;0.30;0.20;;;15.70;99.90;;;;;;4993505;28;20189;-63
2023/10/27 13:02:59;;;;;;;0.30;0.20;;;15.70;99.90;;;;;;4993785;28;20968;-62
2023/10/27 13:05:25;;;;;;;0.30;0.20;;;15.70;99.90;;;;;;4992754;28;20938;-64
2023/10/27 13:07:52;;;;;;;0.30;0.30;;;15.70;99.90;;;;;;4993612;28;20741;-66
2023/10/27 13:10:19;;;;;;;0.30;0.20;;;15.50;99.90;;;;;;4996725;28;20409;-62
2023/10/27 13:12:45;;;;;;;0.30;0.30;;;15.40;99.90;;;;;;4997125;28;20418;-65
2023/10/27 13:15:12;;;;;;;0.30;0.20;;;15.30;99.90;;;;;;4996286;28;20406;-65
2023/10/27 13:17:41;;;;;;;0.30;0.30;;;15.20;99.90;;;;;;4996864;28;20765;-65
2023/10/27 13:20:09;;;;;;;0.30;0.20;;;15.20;99.90;;;;;;4996509;28;20385;-64
2023/10/27 13:22:34;;;;;;;0.30;0.30;;;15.20;99.90;;;;;;4996729;28;20419;-66
2023/10/27 13:25:01;;;;;;;0.30;0.20;;;15.10;99.90;;;;;;4995915;28;20586;-66
2023/10/27 13:27:27;;;;;;;0.30;0.30;;;15.10;99.90;;;;;;4996955;28;20169;-66
2023/10/27 13:29:57;;;;;;;0.37;0.37;;;15.00;99.90;;;;;;4996861;28;20393;-66
2023/10/27 13:32:23;;;;;;;0.30;0.20;;;15.00;99.90;;;;;;4997095;28;20403;-62
2023/10/27 13:34:49;;;;;;;0.30;0.20;;;14.90;99.90;;;;;;4995518;28;20987;-61
2023/10/27 13:37:15;;;;;;;0.30;0.20;;;14.90;99.90;;;;;;4996758;28;20546;-65
2023/10/27 13:39:41;;;;;;;0.30;0.20;;;14.90;99.90;;;;;;4996172;28;20181;-64
2023/10/27 13:42:06;;;;;;;0.30;0.20;;;14.80;99.90;;;;;;4996425;28;20259;-66
2023/10/27 13:44:32;;;;;;;0.30;0.20;;;14.80;99.90;;;;;;4996148;28;20692;-63
2023/10/27 13:46:59;;;;;;;0.30;0.20;;;14.80;99.90;;;;;;4996291;28;20259;-66
2023/10/27 13:49:25;;;;;;;0.40;0.40;;;14.80;99.90;;;;;;4996436;28;20599;-65
2023/10/27 13:51:50;;;;;;;0.30;0.20;;;14.90;99.90;;;;;;4996416;28;20494;-63
2023/10/27 13:54:16;;;;;;;0.30;0.30;;;15.00;99.90;;;;;;4995747;28;20211;-63
2023/10/27 13:56:42;;;;;;;0.30;0.30;;;15.00;99.90;;;;;;4996198;28;20239;-67
2023/10/27 13:59:08;;;;;;;0.30;0.27;;;15.10;99.90;;;;;;4996056;28;20389;-63
2023/10/27 14:01:34;;;;;;;0.30;0.27;;;15.10;99.90;;;;;;4996058;28;20216;-66
2023/10/27 14:04:00;;;;;;;0.30;0.30;;;15.10;99.90;;;;;;4995704;28;20497;-66
2023/10/27 14:06:28;;;;;;;0.30;0.30;;;15.10;99.90;;;;;;4995953;28;20195;-68
2023/10/27 14:08:55;;;;;;;0.30;0.30;;;15.10;99.90;;;;;;4995820;28;20429;-64
2023/10/27 14:11:21;;;;;;;0.30;0.20;;;15.00;99.90;;;;;;4995697;28;20466;-65
2023/10/27 14:13:47;;;;;;;0.30;0.20;;;15.00;99.90;;;;;;4996122;28;20405;-66
2023/10/27 14:16:16;;;;;;;0.30;0.20;;;15.00;99.90;;;;;;4995536;28;20598;-66
2023/10/27 14:18:42;;;;;;;0.30;0.20;;;15.00;99.90;;;;;;4995536;28;20423;-65
2023/10/27 14:21:07;;;;;;;0.30;0.20;;;15.00;99.90;;;;;;4995681;28;20418;-63
2023/10/27 14:23:33;;;;;;;0.30;0.30;;;15.00;99.90;;;;;;4995456;28;20271;-62
2023/10/27 14:25:59;;;;;;;0.30;0.30;;;15.00;99.90;;;;;;4995127;28;20431;-63
2023/10/27 14:28:25;;;;;;;0.30;0.30;;;15.00;99.90;;;;;;4995801;28;20400;-66
2023/10/27 14:30:51;;;;;;;0.30;0.27;;;14.90;99.90;;;;;;4978459;28;20180;-67
2023/10/27 14:33:17;;;;;;;0.30;0.30;;;14.90;99.90;;;;;;4995504;28;20481;-64
2023/10/27 14:35:43;;;;;;;0.30;0.20;;;14.90;99.90;;;;;;4995024;28;20434;-65
2023/10/27 14:38:12;;;;;;;0.30;0.30;;;14.90;99.90;;;;;;4995315;28;20207;-66
2023/10/27 14:40:39;;;;;;;0.30;0.30;;;14.80;99.90;;;;;;4994958;28;20175;-66
2023/10/27 14:43:04;;;;;;;0.30;0.30;;;14.80;99.90;;;;;;4995245;28;20484;-66
2023/10/27 14:45:30;;;;;;;0.30;0.20;;;14.80;99.90;;;;;;4994951;28;20824;-63
2023/10/27 14:47:55;;;;;;;0.30;0.30;;;14.80;99.90;;;;;;4995379;28;20214;-67
2023/10/27 14:50:21;;;;;;;0.30;0.30;;;14.80;99.90;;;;;;4995362;28;20171;-63
2023/10/27 14:52:49;;;;;;;0.30;0.20;;;14.80;99.90;;;;;;4994873;28;20702;-64
2023/10/27 14:55:15;;;;;;;0.30;0.30;;;14.80;99.90;;;;;;4994891;28;20196;-63
2023/10/27 14:57:41;;;;;;;0.30;0.20;;;14.70;99.90;;;;;;4994997;28;20377;-64
2023/10/27 15:00:10;;;;;;;0.30;0.30;;;14.70;99.90;;;;;;4995102;28;20622;-65
2023/10/27 15:02:36;;;;;;;0.30;0.30;;;14.70;99.90;;;;;;4977182;28;20535;-67
2023/10/27 15:05:03;;;;;;;0.40;0.40;;;14.60;99.90;;;;;;4994400;28;20427;-66
2023/10/27 15:07:29;;;;;;;0.30;0.30;;;14.50;99.90;;;;;;4994324;28;20852;-61
2023/10/27 15:09:55;;;;;;;0.30;0.20;;;14.50;99.90;;;;;;4977671;28;20406;-66
2023/10/27 15:12:21;;;;;;;0.30;0.30;;;14.50;99.90;;;;;;4994642;28;20400;-65
2023/10/27 15:14:50;;;;;;;0.30;0.20;;;14.50;99.90;;;;;;4977003;28;20225;-63
2023/10/27 15:17:17;;;;;;;0.30;0.30;;;14.50;99.90;;;;;;4994915;28;20199;-65
2023/10/27 15:19:43;;;;;;;0.30;0.20;;;14.50;99.90;;;;;;4976918;28;20448;-65
2023/10/27 15:22:09;;;;;;;0.30;0.30;;;14.50;99.90;;;;;;4994868;28;20414;-66
2023/10/27 15:24:34;;;;;;;0.30;0.30;;;14.50;99.90;;;;;;4994281;28;20963;-65
2023/10/27 15:27:00;;;;;;;0.87;0.87;;;14.50;99.90;;;;;;4994842;28;20692;-65
2023/10/27 15:29:26;;;;;;;0.30;0.20;;;14.50;99.90;;;;;;4994948;28;20172;-64
2023/10/27 15:31:52;;;;;;;0.30;0.20;;;14.40;99.90;;;;;;4993902;28;20251;-64
2023/10/27 15:34:18;;;;;;;0.30;0.30;;;14.30;99.90;;;;;;4976900;28;20183;-65
2023/10/27 15:36:43;;;;;;;0.30;0.30;;;14.20;99.90;;;;;;4994756;28;20923;-67
2023/10/27 15:39:10;;;;;;;0.30;0.20;;;14.10;99.90;;;;;;4977334;28;20171;-67
2023/10/27 15:41:39;;;;;;;0.30;0.20;;;14.10;99.90;;;;;;4994279;28;20541;-65
2023/10/27 15:44:06;;;;;;;0.30;0.20;;;14.00;99.90;;;;;;4993957;28;20528;-63
2023/10/27 15:46:33;;;;;;;0.30;0.20;;;14.00;99.90;;;;;;4994247;28;20417;-66
2023/10/27 15:49:00;;;;;;;0.30;0.30;;;13.90;99.90;;;;;;4994106;28;20429;-63
2023/10/27 15:51:26;;;;;;;0.30;0.30;;;13.80;99.90;;;;;;4993842;28;20871;-62
2023/10/27 15:53:56;;;;;;;0.30;0.20;;;13.70;99.90;;;;;;4993785;28;20508;-65
2023/10/27 15:56:26;;;;;;;0.30;0.20;;;13.70;99.90;;;;;;4993912;28;20434;-64
2023/10/27 15:58:53;;;;;;;0.30;0.20;;;13.60;99.90;;;;;;4994091;28;20395;-63
2023/10/27 16:01:20;;;;;;;0.30;0.20;;;13.50;99.90;;;;;;4994161;28;20398;-63
2023/10/27 16:03:45;;;;;;;0.40;0.40;;;13.50;99.90;;;;;;4993657;28;20541;-65
2023/10/27 16:06:22;;;;;;;0.30;0.20;;;13.40;99.90;;;;;;4993279;28;20940;-64
2023/10/27 16:08:47;;;;;;;0.30;0.20;;;13.30;99.90;;;;;;4994417;28;20210;-66
2023/10/27 16:11:14;;;;;;;0.30;0.30;;;13.20;99.90;;;;;;4994664;28;20962;-64
2023/10/27 16:13:40;;;;;;;0.30;0.20;;;13.10;99.90;;;;;;4993898;28;20181;-65
2023/10/27 16:16:06;;;;;;;0.30;0.20;;;13.00;99.90;;;;;;4992363;28;20772;-66
2023/10/27 16:18:32;;;;;;;0.30;0.20;;;13.00;99.90;;;;;;4993068;28;20834;-65
2023/10/27 16:20:57;;;;;;;0.30;0.20;;;12.90;99.90;;;;;;4992784;28;20428;-65
2023/10/27 16:23:23;;;;;;;0.30;0.30;;;12.90;99.90;;;;;;4992627;28;20201;-63
2023/10/27 16:25:50;;;;;;;0.30;0.30;;;12.90;99.90;;;;;;4991767;28;20256;-65
2023/10/27 16:28:16;;;;;;;0.30;0.20;;;12.90;99.90;;;;;;4993474;28;20191;-67
2023/10/27 16:30:41;;;;;;;0.30;0.30;;;12.80;99.90;;;;;;4992843;28;20429;-68
2023/10/27 16:33:07;;;;;;;0.30;0.27;;;12.80;99.90;;;;;;4993876;28;20174;-68
2023/10/27 16:35:36;;;;;;;0.30;0.30;;;12.70;99.90;;;;;;4992752;28;20209;-66
2023/10/27 16:38:02;;;;;;;0.30;0.30;;;12.60;99.90;;;;;;4993251;28;20209;-64
2023/10/27 16:40:28;;;;;;;0.30;0.20;;;12.60;99.90;;;;;;4993587;28;20444;-68
2023/10/27 16:42:56;;;;;;;0.30;0.20;;;12.50;99.90;;;;;;4995266;28;21000;-68
2023/10/27 16:45:22;;;;;;;0.30;0.20;;;12.50;99.90;;;;;;4996198;28;20193;-64
2023/10/27 16:47:47;;;;;;;0.30;0.27;;;12.50;99.90;;;;;;4997008;28;20445;-63
2023/10/27 16:50:13;;;;;;;0.30;0.30;;;12.50;99.90;;;;;;4995306;28;20162;-66
2023/10/27 16:52:39;;;;;;;0.30;0.30;;;12.50;99.90;;;;;;4996600;28;20182;-66
2023/10/27 16:55:06;;;;;;;0.30;0.30;;;12.40;99.90;;;;;;4995791;28;20596;-67